createdAt,value
2022-08-20T00:01:02.182Z,954.8
2022-08-20T00:03:58.991Z,954.82
2022-08-20T00:06:58.333Z,954.9
2022-08-20T00:09:59.003Z,954.92
2022-08-20T00:12:59.036Z,954.98
2022-08-20T00:15:59.331Z,954.98
2022-08-20T00:18:58.302Z,954.88
2022-08-20T00:21:58.846Z,954.86
2022-08-20T00:24:58.578Z,954.92
2022-08-20T00:27:59.166Z,954.85
2022-08-20T00:30:59.270Z,954.88
2022-08-20T00:33:58.821Z,954.99
2022-08-20T00:36:59.004Z,955.04
2022-08-20T00:39:58.942Z,955.01
2022-08-20T00:42:59.022Z,955.08
2022-08-20T00:45:58.848Z,955.12
2022-08-20T00:48:59.129Z,955.12
2022-08-20T00:51:58.954Z,955.23
2022-08-20T00:54:58.785Z,955.21
2022-08-20T00:58:01.503Z,955.26
2022-08-20T01:00:59.453Z,955.33
2022-08-20T01:03:58.829Z,955.27
2022-08-20T01:06:59.146Z,955.31
2022-08-20T01:09:59.582Z,955.45
2022-08-20T01:12:59.539Z,955.45
2022-08-20T01:15:59.696Z,955.42
2022-08-20T01:18:58.643Z,955.47
2022-08-20T01:21:58.968Z,955.38
2022-08-20T01:24:58.721Z,955.37
2022-08-20T01:27:59.313Z,955.32
2022-08-20T01:30:59.271Z,955.3
2022-08-20T01:33:59.386Z,955.32
2022-08-20T01:36:59.178Z,955.26
2022-08-20T01:39:59.451Z,955.28
2022-08-20T01:42:59.865Z,955.29
2022-08-20T01:45:59.376Z,955.35
2022-08-20T01:48:58.996Z,955.33
2022-08-20T01:51:59.480Z,955.42
2022-08-20T01:54:58.561Z,955.36
2022-08-20T01:57:58.337Z,955.39
2022-08-20T02:00:59.030Z,955.31
2022-08-20T02:03:58.556Z,955.36
2022-08-20T02:06:58.785Z,955.44
2022-08-20T02:09:59.002Z,955.48
2022-08-20T02:12:59.401Z,955.55
2022-08-20T02:15:59.729Z,955.6
2022-08-20T02:18:58.910Z,955.53
2022-08-20T02:21:58.825Z,955.61
2022-08-20T02:24:59.172Z,955.47
2022-08-20T02:27:59.231Z,955.57
2022-08-20T02:30:58.562Z,955.51
2022-08-20T02:34:22.134Z,955.6
2022-08-20T02:36:59.382Z,955.66
2022-08-20T02:39:58.999Z,955.69
2022-08-20T02:42:58.821Z,955.67
2022-08-20T02:45:58.595Z,955.6
2022-08-20T02:48:58.981Z,955.56
2022-08-20T02:51:59.179Z,955.53
2022-08-20T02:54:59.156Z,955.59
2022-08-20T02:57:59.523Z,955.49
2022-08-20T03:00:59.074Z,955.49
2022-08-20T03:03:58.694Z,955.52
2022-08-20T03:06:58.187Z,955.53
2022-08-20T03:09:59.302Z,955.54
2022-08-20T03:12:58.904Z,955.63
2022-08-20T03:15:59.258Z,955.69
2022-08-20T03:18:58.886Z,955.68
2022-08-20T03:21:58.811Z,955.62
2022-08-20T03:24:59.067Z,955.58
2022-08-20T03:27:59.575Z,955.62
2022-08-20T03:30:58.823Z,955.59
2022-08-20T03:33:58.304Z,955.62
2022-08-20T03:36:59.621Z,955.53
2022-08-20T03:39:58.634Z,955.56
2022-08-20T03:42:59.481Z,955.58
2022-08-20T03:45:58.640Z,955.58
2022-08-20T03:49:00.644Z,955.46
2022-08-20T03:51:58.685Z,955.61
2022-08-20T03:54:59.006Z,955.65
2022-08-20T03:57:59.422Z,955.65
2022-08-20T04:00:58.854Z,955.61
2022-08-20T04:03:58.468Z,955.65
2022-08-20T04:06:58.668Z,955.59
2022-08-20T04:09:59.117Z,955.74
2022-08-20T04:12:59.306Z,955.75
2022-08-20T04:15:59.206Z,955.69
2022-08-20T04:19:02.271Z,955.75
2022-08-20T04:21:58.902Z,955.78
2022-08-20T04:24:58.773Z,955.72
2022-08-20T04:27:59.271Z,955.78
2022-08-20T04:30:58.404Z,955.84
2022-08-20T04:33:58.939Z,955.83
2022-08-20T04:36:58.852Z,955.99
2022-08-20T04:39:59.644Z,956.05
2022-08-20T04:42:58.888Z,956.03
2022-08-20T04:45:58.893Z,956.05
2022-08-20T04:48:58.583Z,956.05
2022-08-20T04:51:58.847Z,956.03
2022-08-20T04:54:58.827Z,956.05
2022-08-20T04:57:58.584Z,956.09
2022-08-20T05:01:01.387Z,956.21
2022-08-20T05:03:58.896Z,956.2
2022-08-20T05:06:58.592Z,956.23
2022-08-20T05:09:59.632Z,956.18
2022-08-20T05:12:58.782Z,956.26
2022-08-20T05:15:59.358Z,956.27
2022-08-20T05:18:58.504Z,956.33
2022-08-20T05:21:58.690Z,956.38
2022-08-20T05:24:59.016Z,956.31
2022-08-20T05:27:59.209Z,956.31
2022-08-20T05:30:59.187Z,956.24
2022-08-20T05:33:58.357Z,956.33
2022-08-20T05:36:58.349Z,956.34
2022-08-20T05:39:59.199Z,956.36
2022-08-20T05:42:59.606Z,956.46
2022-08-20T05:45:58.949Z,956.39
2022-08-20T05:48:59.445Z,956.46
2022-08-20T05:51:58.973Z,956.4
2022-08-20T05:54:59.179Z,956.47
2022-08-20T05:57:59.707Z,956.46
2022-08-20T06:00:59.035Z,956.39
2022-08-20T06:03:58.531Z,956.48
2022-08-20T06:06:58.641Z,956.41
2022-08-20T06:09:59.653Z,956.38
2022-08-20T06:12:58.610Z,956.41
2022-08-20T06:15:59.434Z,956.35
2022-08-20T06:18:59.882Z,956.38
2022-08-20T06:21:58.901Z,956.33
2022-08-20T06:24:58.621Z,956.3
2022-08-20T06:27:59.344Z,956.29
2022-08-20T06:30:59.488Z,956.37
2022-08-20T06:33:58.468Z,956.3
2022-08-20T06:36:59.215Z,956.36
2022-08-20T06:39:59.286Z,956.41
2022-08-20T06:42:58.387Z,956.41
2022-08-20T06:45:59.213Z,956.44
2022-08-20T06:48:59.198Z,956.3
2022-08-20T06:51:59.088Z,956.41
2022-08-20T06:54:58.877Z,956.43
2022-08-20T06:57:59.101Z,956.47
2022-08-20T07:01:03.247Z,956.44
2022-08-20T07:03:58.764Z,956.51
2022-08-20T07:06:59.788Z,956.55
2022-08-20T07:09:59.053Z,956.57
2022-08-20T07:12:58.960Z,956.57
2022-08-20T07:15:58.914Z,956.64
2022-08-20T07:18:59.007Z,956.68
2022-08-20T07:21:59.323Z,956.68
2022-08-20T07:24:59.284Z,956.71
2022-08-20T07:27:58.717Z,956.61
2022-08-20T07:30:59.433Z,956.75
2022-08-20T07:33:58.489Z,956.75
2022-08-20T07:36:59.307Z,956.71
2022-08-20T07:39:59.288Z,956.71
2022-08-20T07:42:59.233Z,956.77
2022-08-20T07:45:59.454Z,956.78
2022-08-20T07:48:59.331Z,956.86
2022-08-20T07:51:58.237Z,956.82
2022-08-20T07:54:59.153Z,956.88
2022-08-20T07:57:58.349Z,956.88
2022-08-20T08:00:59.566Z,956.88
2022-08-20T08:03:59.169Z,956.87
2022-08-20T08:06:59.084Z,956.93
2022-08-20T08:09:58.977Z,956.96
2022-08-20T08:12:58.946Z,957.03
2022-08-20T08:15:58.953Z,957.01
2022-08-20T08:18:59.593Z,957.03
2022-08-20T08:21:58.816Z,957.06
2022-08-20T08:24:58.792Z,957.14
2022-08-20T08:27:58.789Z,957.1
2022-08-20T08:30:59.613Z,957.06
2022-08-20T08:33:58.903Z,957.07
2022-08-20T08:36:58.649Z,957.0
2022-08-20T08:39:59.746Z,957.03
2022-08-20T08:42:59.058Z,957.0
2022-08-20T08:45:59.235Z,957.0
2022-08-20T08:48:58.558Z,957.06
2022-08-20T08:51:59.460Z,957.15
2022-08-20T08:54:59.257Z,957.04
2022-08-20T08:57:59.458Z,957.03
2022-08-20T09:00:59.547Z,957.16
2022-08-20T09:03:59.096Z,957.08
2022-08-20T09:06:59.372Z,957.11
2022-08-20T09:09:59.288Z,957.08
2022-08-20T09:12:59.118Z,957.1
2022-08-20T09:15:59.239Z,957.19
2022-08-20T09:18:59.156Z,957.19
2022-08-20T09:21:58.462Z,957.22
2022-08-20T09:24:58.573Z,957.1
2022-08-20T09:27:58.806Z,957.23
2022-08-20T09:30:59.909Z,957.08
2022-08-20T09:33:58.989Z,957.11
2022-08-20T09:36:59.268Z,957.18
2022-08-20T09:39:59.192Z,957.26
2022-08-20T09:42:58.986Z,957.15
2022-08-20T09:45:58.974Z,957.07
2022-08-20T09:48:58.864Z,957.07
2022-08-20T09:51:58.625Z,957.05
2022-08-20T09:54:59.005Z,957.16
2022-08-20T09:57:58.723Z,957.07
2022-08-20T10:00:59.547Z,957.15
2022-08-20T10:03:58.642Z,957.07
2022-08-20T10:06:58.828Z,956.98
2022-08-20T10:09:59.329Z,956.99
2022-08-20T10:12:59.312Z,957.08
2022-08-20T10:15:59.494Z,957.09
2022-08-20T10:18:58.262Z,957.07
2022-08-20T10:21:59.211Z,957.08
2022-08-20T10:24:58.798Z,956.98
2022-08-20T10:27:58.983Z,956.97
2022-08-20T10:30:59.550Z,956.94
2022-08-20T10:33:59.115Z,956.95
2022-08-20T10:36:59.225Z,956.98
2022-08-20T10:39:59.058Z,957.11
2022-08-20T10:42:59.304Z,957.05
2022-08-20T10:45:58.913Z,956.95
2022-08-20T10:48:58.969Z,956.89
2022-08-20T10:51:58.797Z,956.88
2022-08-20T10:54:58.777Z,956.89
2022-08-20T10:57:58.971Z,956.92
2022-08-20T11:00:59.703Z,956.96
2022-08-20T11:04:15.630Z,956.95
2022-08-20T11:06:59.182Z,956.98
2022-08-20T11:09:59.768Z,956.89
2022-08-20T11:12:58.647Z,956.88
2022-08-20T11:15:58.929Z,956.9
2022-08-20T11:18:58.524Z,956.82
2022-08-20T11:21:59.311Z,956.83
2022-08-20T11:24:58.703Z,956.8
2022-08-20T11:27:58.638Z,956.79
2022-08-20T11:30:59.600Z,956.86
2022-08-20T11:33:59.002Z,956.86
2022-08-20T11:36:58.735Z,956.73
2022-08-20T11:39:59.057Z,956.71
2022-08-20T11:43:14.191Z,956.77
2022-08-20T11:45:58.742Z,956.79
2022-08-20T11:48:59.258Z,956.96
2022-08-20T11:51:59.007Z,957.2
2022-08-20T11:54:58.874Z,957.27
2022-08-20T11:57:59.712Z,957.35
2022-08-20T12:00:59.039Z,957.21
2022-08-20T12:03:59.138Z,957.22
2022-08-20T12:06:58.738Z,957.14
2022-08-20T12:09:59.022Z,957.15
2022-08-20T12:12:59.844Z,957.09
2022-08-20T12:15:59.043Z,957.06
2022-08-20T12:18:59.164Z,957.08
2022-08-20T12:21:58.665Z,957.28
2022-08-20T12:24:58.592Z,957.28
2022-08-20T12:27:58.435Z,957.24
2022-08-20T12:30:58.963Z,957.22
2022-08-20T12:33:58.938Z,957.16
2022-08-20T12:36:58.454Z,957.22
2022-08-20T12:39:59.591Z,957.11
2022-08-20T12:42:58.642Z,957.1
2022-08-20T12:45:59.318Z,957.03
2022-08-20T12:48:59.218Z,957.16
2022-08-20T12:51:59.159Z,957.2
2022-08-20T12:54:58.895Z,957.16
2022-08-20T12:57:59.268Z,957.24
2022-08-20T13:00:59.173Z,957.22
2022-08-20T13:03:59.058Z,957.16
2022-08-20T13:06:59.508Z,957.25
2022-08-20T13:09:58.816Z,957.25
2022-08-20T13:12:59.236Z,957.28
2022-08-20T13:15:58.401Z,957.37
2022-08-20T13:18:58.847Z,957.41
2022-08-20T13:21:58.747Z,957.47
2022-08-20T13:24:58.838Z,957.48
2022-08-20T13:27:59.281Z,957.41
2022-08-20T13:30:58.884Z,957.42
2022-08-20T13:33:58.995Z,957.36
2022-08-20T13:36:58.812Z,957.36
2022-08-20T13:39:59.510Z,957.39
2022-08-20T13:42:59.906Z,957.42
2022-08-20T13:45:58.625Z,957.36
2022-08-20T13:48:58.570Z,957.29
2022-08-20T13:51:58.677Z,957.26
2022-08-20T13:55:00.413Z,957.23
2022-08-20T13:57:59.427Z,957.23
2022-08-20T14:00:59.418Z,957.14
2022-08-20T14:03:59.123Z,957.17
2022-08-20T14:06:59.105Z,957.08
2022-08-20T14:09:59.279Z,957.07
2022-08-20T14:12:59.533Z,957.2
2022-08-20T14:15:59.040Z,957.17
2022-08-20T14:18:58.877Z,957.16
2022-08-20T14:21:59.253Z,957.08
2022-08-20T14:24:59.195Z,957.2
2022-08-20T14:27:58.190Z,957.16
2022-08-20T14:30:59.825Z,957.2
2022-08-20T14:33:59.185Z,957.2
2022-08-20T14:36:58.955Z,957.2
2022-08-20T14:39:59.822Z,957.2
2022-08-20T14:42:59.313Z,957.16
2022-08-20T14:45:59.550Z,957.11
2022-08-20T14:48:59.188Z,957.04
2022-08-20T14:51:59.500Z,957.05
2022-08-20T14:54:58.684Z,957.01
2022-08-20T14:57:59.040Z,957.04
2022-08-20T15:00:59.364Z,957.07
2022-08-20T15:03:58.317Z,957.18
2022-08-20T15:07:00.723Z,957.04
2022-08-20T15:09:59.303Z,957.05
2022-08-20T15:12:58.543Z,957.1
2022-08-20T15:15:59.733Z,957.22
2022-08-20T15:18:59.696Z,957.18
2022-08-20T15:21:59.186Z,957.02
2022-08-20T15:24:59.046Z,957.02
2022-08-20T15:28:00.092Z,957.1
2022-08-20T15:30:59.365Z,957.02
2022-08-20T15:33:59.817Z,957.08
2022-08-20T15:36:58.921Z,957.05
2022-08-20T15:39:59.324Z,956.98
2022-08-20T15:42:59.825Z,957.04
2022-08-20T15:45:59.157Z,957.02
2022-08-20T15:48:58.729Z,956.99
2022-08-20T15:51:58.745Z,956.95
2022-08-20T15:54:59.359Z,957.04
2022-08-20T15:57:58.634Z,957.0
2022-08-20T16:01:24.076Z,957.08
2022-08-20T16:03:59.074Z,957.15
2022-08-20T16:06:59.414Z,957.22
2022-08-20T16:09:58.982Z,957.1
2022-08-20T16:12:59.184Z,957.15
2022-08-20T16:15:58.835Z,957.21
2022-08-20T16:18:59.457Z,957.16
2022-08-20T16:21:58.763Z,957.18
2022-08-20T16:24:59.167Z,957.1
2022-08-20T16:27:59.109Z,957.04
2022-08-20T16:30:59.620Z,957.1
2022-08-20T16:33:59.480Z,957.01
2022-08-20T16:37:02.634Z,957.15
2022-08-20T16:39:59.276Z,957.05
2022-08-20T16:42:59.234Z,957.03
2022-08-20T16:46:00.053Z,956.97
2022-08-20T16:48:58.893Z,957.1
2022-08-20T16:51:58.920Z,956.97
2022-08-20T16:54:58.839Z,957.07
2022-08-20T16:57:59.088Z,957.06
2022-08-20T17:00:59.648Z,957.11
2022-08-20T17:03:59.098Z,957.0
2022-08-20T17:06:58.904Z,956.98
2022-08-20T17:09:58.886Z,957.0
2022-08-20T17:12:58.738Z,957.04
2022-08-20T17:15:59.657Z,957.19
2022-08-20T17:18:58.600Z,957.03
2022-08-20T17:21:58.742Z,957.07
2022-08-20T17:24:59.395Z,956.95
2022-08-20T17:27:59.410Z,957.07
2022-08-20T17:30:59.443Z,957.03
2022-08-20T17:33:59.213Z,956.98
2022-08-20T17:36:58.992Z,957.0
2022-08-20T17:39:59.287Z,956.95
2022-08-20T17:42:59.449Z,956.94
2022-08-20T17:45:59.510Z,957.04
2022-08-20T17:48:59.516Z,957.04
2022-08-20T17:51:58.525Z,957.18
2022-08-20T17:54:59.037Z,957.1
2022-08-20T17:57:59.412Z,957.22
2022-08-20T18:01:25.391Z,957.21
2022-08-20T18:03:58.818Z,957.17
2022-08-20T18:06:59.329Z,957.24
2022-08-20T18:09:59.522Z,957.28
2022-08-20T18:12:58.820Z,957.26
2022-08-20T18:15:59.262Z,957.32
2022-08-20T18:18:59.412Z,957.36
2022-08-20T18:21:59.169Z,957.29
2022-08-20T18:24:59.510Z,957.34
2022-08-20T18:27:58.968Z,957.25
2022-08-20T18:30:59.438Z,957.34
2022-08-20T18:33:59.481Z,957.34
2022-08-20T18:36:59.247Z,957.31
2022-08-20T18:39:59.394Z,957.34
2022-08-20T18:42:58.717Z,957.27
2022-08-20T18:45:58.875Z,957.2
2022-08-20T18:48:58.342Z,957.23
2022-08-20T18:51:58.509Z,957.29
2022-08-20T18:54:59.368Z,957.34
2022-08-20T18:57:59.424Z,957.26
2022-08-20T19:00:58.941Z,957.39
2022-08-20T19:03:58.905Z,957.36
2022-08-20T19:06:58.509Z,957.33
2022-08-20T19:09:58.965Z,957.39
2022-08-20T19:12:59.174Z,957.36
2022-08-20T19:15:59.819Z,957.4
2022-08-20T19:18:58.549Z,957.39
2022-08-20T19:21:58.885Z,957.39
2022-08-20T19:24:58.889Z,957.4
2022-08-20T19:27:58.797Z,957.43
2022-08-20T19:30:59.689Z,957.42
2022-08-20T19:33:58.815Z,957.42
2022-08-20T19:36:59.521Z,957.45
2022-08-20T19:39:58.791Z,957.37
2022-08-20T19:42:59.562Z,957.32
2022-08-20T19:45:59.323Z,957.39
2022-08-20T19:48:58.889Z,957.42
2022-08-20T19:51:59.410Z,957.42
2022-08-20T19:55:03.377Z,957.33
2022-08-20T19:57:59.388Z,957.33
2022-08-20T20:00:59.483Z,957.32
2022-08-20T20:03:59.288Z,957.39
2022-08-20T20:06:58.745Z,957.42
2022-08-20T20:09:59.160Z,957.49
2022-08-20T20:12:59.289Z,957.39
2022-08-20T20:15:58.571Z,957.39
2022-08-20T20:19:22.712Z,957.52
2022-08-20T20:21:59.268Z,957.43
2022-08-20T20:24:58.301Z,957.37
2022-08-20T20:27:59.031Z,957.45
2022-08-20T20:30:59.591Z,957.32
2022-08-20T20:33:58.965Z,957.41
2022-08-20T20:36:59.603Z,957.44
2022-08-20T20:39:59.776Z,957.38
2022-08-20T20:42:59.260Z,957.41
2022-08-20T20:48:58.975Z,957.44
2022-08-20T20:51:58.630Z,957.45
2022-08-20T20:54:59.624Z,957.41
2022-08-20T20:57:58.977Z,957.35
2022-08-20T21:00:59.005Z,957.38
2022-08-20T21:03:59.144Z,957.42
2022-08-20T21:06:59.614Z,957.42
2022-08-20T21:09:58.900Z,957.44
2022-08-20T21:12:59.095Z,957.42
2022-08-20T21:15:59.558Z,957.41
2022-08-20T21:18:59.041Z,957.32
2022-08-20T21:21:59.036Z,957.35
2022-08-20T21:24:59.266Z,957.31
2022-08-20T21:27:58.745Z,957.34
2022-08-20T21:30:59.096Z,957.35
2022-08-20T21:33:59.055Z,957.31
2022-08-20T21:36:59.375Z,957.34
2022-08-20T21:39:59.719Z,957.31
2022-08-20T21:42:59.380Z,957.25
2022-08-20T21:45:59.306Z,957.29
2022-08-20T21:48:58.545Z,957.16
2022-08-20T21:51:59.398Z,957.16
2022-08-20T21:54:59.388Z,957.16
2022-08-20T21:57:58.970Z,957.27
2022-08-20T22:00:59.150Z,957.21
2022-08-20T22:03:59.585Z,957.34
2022-08-20T22:06:58.545Z,957.32
2022-08-20T22:09:58.568Z,957.22
2022-08-20T22:12:58.746Z,957.15
2022-08-20T22:15:59.443Z,957.18
2022-08-20T22:18:58.437Z,957.07
2022-08-20T22:21:59.486Z,957.14
2022-08-20T22:24:58.880Z,957.06
2022-08-20T22:27:59.183Z,957.07
2022-08-20T22:30:58.308Z,957.1
2022-08-20T22:33:59.257Z,957.09
2022-08-20T22:36:58.499Z,957.15
2022-08-20T22:39:59.880Z,957.1
2022-08-20T22:42:59.222Z,957.06
2022-08-20T22:45:59.287Z,957.24
2022-08-20T22:48:59.064Z,957.22
2022-08-20T22:51:58.869Z,957.21
2022-08-20T22:54:59.082Z,957.14
2022-08-20T22:57:59.092Z,957.15
2022-08-20T23:00:59.923Z,957.14
2022-08-20T23:03:59.217Z,957.17
2022-08-20T23:06:59.523Z,957.18
2022-08-20T23:09:59.643Z,957.23
2022-08-20T23:12:58.871Z,957.1
2022-08-20T23:15:58.639Z,957.2
2022-08-20T23:18:58.575Z,957.17
2022-08-20T23:21:58.567Z,957.2
2022-08-20T23:25:00.663Z,957.27
2022-08-20T23:28:04.426Z,957.21
2022-08-20T23:30:59.423Z,957.18
2022-08-20T23:33:58.415Z,957.16
2022-08-20T23:36:59.338Z,957.14
2022-08-20T23:39:59.356Z,957.21
2022-08-20T23:42:59.444Z,957.29
2022-08-20T23:45:58.388Z,957.19
2022-08-20T23:48:58.585Z,957.16
2022-08-20T23:51:58.324Z,957.2
2022-08-20T23:54:58.240Z,957.2
2022-08-20T23:57:59.082Z,957.27
